sensor_id;sensor_type;location;lat;lon;timestamp;pressure;altitude;pressure_sealevel;temperature;humidity
23619;BME280;18207;32.078;34.818;2022-11-15T00:01:17;101024.94;;;28.72;42.75
23619;BME280;18207;32.078;34.818;2022-11-15T00:03:51;101024.06;;;28.68;42.82
23619;BME280;18207;32.078;34.818;2022-11-15T00:06:23;101020.81;;;28.66;42.88
23619;BME280;18207;32.078;34.818;2022-11-15T00:08:54;101019.56;;;28.64;43.18
23619;BME280;18207;32.078;34.818;2022-11-15T00:11:25;101028.03;;;28.64;42.95
23619;BME280;18207;32.078;34.818;2022-11-15T00:13:56;101027.25;;;28.63;43.04
23619;BME280;18207;32.078;34.818;2022-11-15T00:16:26;101013.50;;;28.62;42.96
23619;BME280;18207;32.078;34.818;2022-11-15T00:18:57;101003.72;;;28.60;43.12
23619;BME280;18207;32.078;34.818;2022-11-15T00:21:29;101020.31;;;28.58;43.13
23619;BME280;18207;32.078;34.818;2022-11-15T00:23:59;101029.97;;;28.57;43.25
23619;BME280;18207;32.078;34.818;2022-11-15T00:26:30;101031.97;;;28.56;43.15
23619;BME280;18207;32.078;34.818;2022-11-15T00:29:00;101032.38;;;28.55;42.89
23619;BME280;18207;32.078;34.818;2022-11-15T00:31:31;101031.94;;;28.53;42.89
23619;BME280;18207;32.078;34.818;2022-11-15T00:34:02;101027.47;;;28.52;43.53
23619;BME280;18207;32.078;34.818;2022-11-15T00:36:35;101029.84;;;28.50;43.46
23619;BME280;18207;32.078;34.818;2022-11-15T00:39:06;101019.78;;;28.49;43.31
23619;BME280;18207;32.078;34.818;2022-11-15T00:41:36;101025.78;;;28.47;43.25
23619;BME280;18207;32.078;34.818;2022-11-15T00:44:06;101025.00;;;28.47;43.61
23619;BME280;18207;32.078;34.818;2022-11-15T00:46:37;101018.50;;;28.46;43.14
23619;BME280;18207;32.078;34.818;2022-11-15T00:49:07;101014.44;;;28.44;43.29
23619;BME280;18207;32.078;34.818;2022-11-15T00:51:39;101013.19;;;28.41;43.55
23619;BME280;18207;32.078;34.818;2022-11-15T00:54:09;101012.31;;;28.37;43.26
23619;BME280;18207;32.078;34.818;2022-11-15T00:56:40;101019.56;;;28.35;43.30
23619;BME280;18207;32.078;34.818;2022-11-15T00:59:10;101025.59;;;28.33;43.45
23619;BME280;18207;32.078;34.818;2022-11-15T01:01:40;101024.78;;;28.33;43.42
23619;BME280;18207;32.078;34.818;2022-11-15T01:04:11;101019.94;;;28.33;43.37
23619;BME280;18207;32.078;34.818;2022-11-15T01:06:43;101027.22;;;28.34;43.53
23619;BME280;18207;32.078;34.818;2022-11-15T01:09:15;101023.19;;;28.35;43.74
23619;BME280;18207;32.078;34.818;2022-11-15T01:11:46;101030.47;;;28.36;43.49
23619;BME280;18207;32.078;34.818;2022-11-15T01:14:16;101023.63;;;28.37;43.57
23619;BME280;18207;32.078;34.818;2022-11-15T01:16:52;101029.28;;;28.37;43.52
23619;BME280;18207;32.078;34.818;2022-11-15T01:19:22;101034.94;;;28.37;43.78
23619;BME280;18207;32.078;34.818;2022-11-15T01:21:54;101032.94;;;28.38;43.32
23619;BME280;18207;32.078;34.818;2022-11-15T01:24:25;101038.59;;;28.38;43.75
23619;BME280;18207;32.078;34.818;2022-11-15T01:26:55;101041.03;;;28.39;43.84
23619;BME280;18207;32.078;34.818;2022-11-15T01:29:25;101030.53;;;28.40;43.44
23619;BME280;18207;32.078;34.818;2022-11-15T01:31:56;101032.09;;;28.37;43.34
23619;BME280;18207;32.078;34.818;2022-11-15T01:34:26;101032.06;;;28.34;43.78
23619;BME280;18207;32.078;34.818;2022-11-15T01:36:59;101042.13;;;28.31;43.67
23619;BME280;18207;32.078;34.818;2022-11-15T01:39:29;101042.13;;;28.31;43.79
23619;BME280;18207;32.078;34.818;2022-11-15T01:42:00;101045.31;;;28.30;43.77
23619;BME280;18207;32.078;34.818;2022-11-15T01:44:43;101045.31;;;28.30;44.04
23619;BME280;18207;32.078;34.818;2022-11-15T01:47:18;101043.28;;;28.27;43.92
23619;BME280;18207;32.078;34.818;2022-11-15T01:49:55;101044.47;;;28.26;43.89
23619;BME280;18207;32.078;34.818;2022-11-15T01:52:39;101042.44;;;28.26;43.81
23619;BME280;18207;32.078;34.818;2022-11-15T01:55:19;101046.09;;;28.27;43.70
23619;BME280;18207;32.078;34.818;2022-11-15T01:57:55;101039.19;;;28.24;43.62
23619;BME280;18207;32.078;34.818;2022-11-15T02:00:28;101038.75;;;28.22;43.68
23619;BME280;18207;32.078;34.818;2022-11-15T02:02:59;101048.41;;;28.21;43.82
23619;BME280;18207;32.078;34.818;2022-11-15T02:05:31;101042.69;;;28.18;43.88
23619;BME280;18207;32.078;34.818;2022-11-15T02:08:05;101037.00;;;28.14;43.75
23619;BME280;18207;32.078;34.818;2022-11-15T02:10:37;101041.00;;;28.13;43.80
23619;BME280;18207;32.078;34.818;2022-11-15T02:13:07;101031.69;;;28.13;43.82
23619;BME280;18207;32.078;34.818;2022-11-15T02:15:49;101031.69;;;28.13;43.93
23619;BME280;18207;32.078;34.818;2022-11-15T02:18:35;101035.28;;;28.10;43.94
23619;BME280;18207;32.078;34.818;2022-11-15T02:21:18;101031.25;;;28.11;44.03
23619;BME280;18207;32.078;34.818;2022-11-15T02:28:08;101038.09;;;28.10;43.88
23619;BME280;18207;32.078;34.818;2022-11-15T02:30:48;101036.91;;;28.11;43.90
23619;BME280;18207;32.078;34.818;2022-11-15T02:33:34;101035.34;;;28.13;44.04
23619;BME280;18207;32.078;34.818;2022-11-15T02:36:15;101038.19;;;28.13;43.76
23619;BME280;18207;32.078;34.818;2022-11-15T02:39:08;101031.69;;;28.13;43.76
23619;BME280;18207;32.078;34.818;2022-11-15T02:41:50;101026.88;;;28.13;43.63
23619;BME280;18207;32.078;34.818;2022-11-15T02:44:28;101035.78;;;28.15;43.90
23619;BME280;18207;32.078;34.818;2022-11-15T02:47:04;101041.06;;;28.17;43.99
23619;BME280;18207;32.078;34.818;2022-11-15T02:49:48;101051.97;;;28.18;44.33
23619;BME280;18207;32.078;34.818;2022-11-15T02:52:22;101052.81;;;28.19;43.88
23619;BME280;18207;32.078;34.818;2022-11-15T02:54:55;101058.06;;;28.20;43.95
23619;BME280;18207;32.078;34.818;2022-11-15T02:57:39;101051.97;;;28.18;43.76
23619;BME280;18207;32.078;34.818;2022-11-15T03:00:17;101057.63;;;28.18;43.88
23619;BME280;18207;32.078;34.818;2022-11-15T03:03:22;101064.88;;;28.16;43.86
23619;BME280;18207;32.078;34.818;2022-11-15T03:06:12;101064.81;;;28.12;44.07
23619;BME280;18207;32.078;34.818;2022-11-15T03:08:57;101068.84;;;28.11;44.07
23619;BME280;18207;32.078;34.818;2022-11-15T03:11:32;101065.56;;;28.09;43.74
23619;BME280;18207;32.078;34.818;2022-11-15T03:14:17;101061.53;;;28.10;44.08
23619;BME280;18207;32.078;34.818;2022-11-15T03:16:56;101067.19;;;28.10;43.98
23619;BME280;18207;32.078;34.818;2022-11-15T03:19:37;101068.84;;;28.11;44.07
23619;BME280;18207;32.078;34.818;2022-11-15T03:22:15;101058.72;;;28.10;44.12
23619;BME280;18207;32.078;34.818;2022-11-15T03:24:54;101066.81;;;28.12;44.05
23619;BME280;18207;32.078;34.818;2022-11-15T03:27:31;101066.81;;;28.12;44.10
23619;BME280;18207;32.078;34.818;2022-11-15T03:30:08;101064.81;;;28.12;44.02
23619;BME280;18207;32.078;34.818;2022-11-15T03:32:44;101055.16;;;28.13;44.31
23619;BME280;18207;32.078;34.818;2022-11-15T03:35:22;101068.88;;;28.15;44.04
23619;BME280;18207;32.078;34.818;2022-11-15T03:37:59;101067.69;;;28.16;44.17
23619;BME280;18207;32.078;34.818;2022-11-15T03:40:38;101071.31;;;28.16;44.18
23619;BME280;18207;32.078;34.818;2022-11-15T03:43:19;101072.91;;;28.14;44.35
23619;BME280;18207;32.078;34.818;2022-11-15T03:45:55;101068.84;;;28.11;44.43
23619;BME280;18207;32.078;34.818;2022-11-15T03:48:48;101078.91;;;28.09;44.28
23619;BME280;18207;32.078;34.818;2022-11-15T03:51:23;101076.44;;;28.07;44.36
23619;BME280;18207;32.078;34.818;2022-11-15T03:53:54;101084.09;;;28.07;44.20
23619;BME280;18207;32.078;34.818;2022-11-15T03:56:24;101081.28;;;28.07;44.44
23619;BME280;18207;32.078;34.818;2022-11-15T03:58:55;101086.53;;;28.08;44.26
23619;BME280;18207;32.078;34.818;2022-11-15T04:01:25;101082.53;;;28.09;44.32
23619;BME280;18207;32.078;34.818;2022-11-15T04:03:55;101080.50;;;28.10;44.15
23619;BME280;18207;32.078;34.818;2022-11-15T04:06:28;101081.34;;;28.10;44.42
23619;BME280;18207;32.078;34.818;2022-11-15T04:08:58;101082.97;;;28.11;44.42
23619;BME280;18207;32.078;34.818;2022-11-15T04:11:29;101082.53;;;28.09;44.02
23619;BME280;18207;32.078;34.818;2022-11-15T04:13:59;101080.88;;;28.08;44.41
23619;BME280;18207;32.078;34.818;2022-11-15T04:16:29;101082.91;;;28.08;44.50
23619;BME280;18207;32.078;34.818;2022-11-15T04:19:00;101083.28;;;28.06;44.74
23619;BME280;18207;32.078;34.818;2022-11-15T04:21:49;101078.41;;;28.03;44.52
23619;BME280;18207;32.078;34.818;2022-11-15T04:24:36;101077.50;;;27.99;44.52
23619;BME280;18207;32.078;34.818;2022-11-15T04:27:07;101083.91;;;27.96;44.52
23619;BME280;18207;32.078;34.818;2022-11-15T04:29:37;101088.75;;;27.96;44.42
23619;BME280;18207;32.078;34.818;2022-11-15T04:32:08;101093.56;;;27.95;44.35
23619;BME280;18207;32.078;34.818;2022-11-15T04:34:38;101082.66;;;27.94;44.44
23619;BME280;18207;32.078;34.818;2022-11-15T04:37:10;101085.94;;;27.96;44.46
23619;BME280;18207;32.078;34.818;2022-11-15T04:39:44;101085.47;;;27.94;44.75
23619;BME280;18207;32.078;34.818;2022-11-15T04:42:14;101083.50;;;27.94;44.75
23619;BME280;18207;32.078;34.818;2022-11-15T04:44:44;101086.31;;;27.94;44.37
23619;BME280;18207;32.078;34.818;2022-11-15T04:47:14;101086.31;;;27.94;44.40
23619;BME280;18207;32.078;34.818;2022-11-15T04:49:46;101086.69;;;27.93;44.45
23619;BME280;18207;32.078;34.818;2022-11-15T04:52:19;101099.56;;;27.90;44.56
23619;BME280;18207;32.078;34.818;2022-11-15T04:54:49;101093.47;;;27.88;44.57
23619;BME280;18207;32.078;34.818;2022-11-15T04:57:20;101098.31;;;27.88;44.75
23619;BME280;18207;32.078;34.818;2022-11-15T04:59:50;101101.13;;;27.88;44.42
23619;BME280;18207;32.078;34.818;2022-11-15T05:02:20;101107.22;;;27.90;44.77
23619;BME280;18207;32.078;34.818;2022-11-15T05:04:50;101104.81;;;27.92;44.75
23619;BME280;18207;32.078;34.818;2022-11-15T05:07:21;101106.91;;;27.95;44.82
23619;BME280;18207;32.078;34.818;2022-11-15T05:09:52;101113.00;;;27.97;44.57
23619;BME280;18207;32.078;34.818;2022-11-15T05:12:23;101110.22;;;28.00;44.72
23619;BME280;18207;32.078;34.818;2022-11-15T05:14:52;101113.50;;;28.02;44.66
23619;BME280;18207;32.078;34.818;2022-11-15T05:17:22;101118.75;;;28.04;44.78
23619;BME280;18207;32.078;34.818;2022-11-15T05:19:53;101117.13;;;28.03;44.63
23619;BME280;18207;32.078;34.818;2022-11-15T05:22:25;101124.81;;;28.02;44.58
23619;BME280;18207;32.078;34.818;2022-11-15T05:24:55;101118.75;;;28.04;44.59
23619;BME280;18207;32.078;34.818;2022-11-15T05:27:25;101128.88;;;28.05;44.60
23619;BME280;18207;32.078;34.818;2022-11-15T05:29:56;101127.69;;;28.06;44.68
23619;BME280;18207;32.078;34.818;2022-11-15T05:32:26;101131.75;;;28.08;44.40
23619;BME280;18207;32.078;34.818;2022-11-15T05:34:58;101131.38;;;28.10;44.90
23619;BME280;18207;32.078;34.818;2022-11-15T05:37:31;101129.00;;;28.12;44.95
23619;BME280;18207;32.078;34.818;2022-11-15T05:40:01;101134.28;;;28.13;44.80
23619;BME280;18207;32.078;34.818;2022-11-15T05:42:31;101129.44;;;28.14;44.51
23619;BME280;18207;32.078;34.818;2022-11-15T05:45:06;101131.06;;;28.15;44.73
23619;BME280;18207;32.078;34.818;2022-11-15T05:47:38;101134.28;;;28.13;44.75
23619;BME280;18207;32.078;34.818;2022-11-15T05:50:12;101139.94;;;28.13;44.80
23619;BME280;18207;32.078;34.818;2022-11-15T05:52:48;101145.94;;;28.12;44.89
23619;BME280;18207;32.078;34.818;2022-11-15T05:55:19;101145.16;;;28.11;44.71
23619;BME280;18207;32.078;34.818;2022-11-15T05:57:49;101146.34;;;28.10;44.71
23619;BME280;18207;32.078;34.818;2022-11-15T06:00:20;101152.00;;;28.10;44.93
23619;BME280;18207;32.078;34.818;2022-11-15T06:02:50;101147.53;;;28.09;44.74
23619;BME280;18207;32.078;34.818;2022-11-15T06:05:21;101148.72;;;28.08;45.00
23619;BME280;18207;32.078;34.818;2022-11-15T06:07:57;101154.81;;;28.10;44.73
23619;BME280;18207;32.078;34.818;2022-11-15T06:10:28;101153.63;;;28.11;44.67
23619;BME280;18207;32.078;34.818;2022-11-15T06:12:59;101148.31;;;28.10;44.76
23619;BME280;18207;32.078;34.818;2022-11-15T06:15:31;101146.34;;;28.10;44.83
23619;BME280;18207;32.078;34.818;2022-11-15T06:18:02;101147.97;;;28.11;45.08
23619;BME280;18207;32.078;34.818;2022-11-15T06:20:32;101146.78;;;28.12;44.96
23619;BME280;18207;32.078;34.818;2022-11-15T06:23:05;101148.41;;;28.13;45.01
23619;BME280;18207;32.078;34.818;2022-11-15T06:25:35;101150.41;;;28.13;44.82
23619;BME280;18207;32.078;34.818;2022-11-15T06:28:05;101146.41;;;28.14;44.98
23619;BME280;18207;32.078;34.818;2022-11-15T06:30:36;101150.84;;;28.15;44.97
23619;BME280;18207;32.078;34.818;2022-11-15T06:33:07;101150.06;;;28.14;45.06
23619;BME280;18207;32.078;34.818;2022-11-15T06:35:38;101146.41;;;28.14;44.77
23619;BME280;18207;32.078;34.818;2022-11-15T06:38:11;101146.41;;;28.14;44.97
23619;BME280;18207;32.078;34.818;2022-11-15T06:40:42;101145.22;;;28.15;45.23
23619;BME280;18207;32.078;34.818;2022-11-15T06:43:13;101148.91;;;28.19;44.79
23619;BME280;18207;32.078;34.818;2022-11-15T06:45:42;101157.81;;;28.21;44.91
23619;BME280;18207;32.078;34.818;2022-11-15T06:48:14;101156.72;;;28.25;45.01
23619;BME280;18207;32.078;34.818;2022-11-15T06:50:51;101151.94;;;28.29;44.64
23619;BME280;18207;32.078;34.818;2022-11-15T06:53:23;101150.75;;;28.30;44.84
23619;BME280;18207;32.078;34.818;2022-11-15T06:55:56;101146.75;;;28.31;44.89
23619;BME280;18207;32.078;34.818;2022-11-15T06:58:28;101148.00;;;28.34;44.79
23619;BME280;18207;32.078;34.818;2022-11-15T07:01:00;101151.63;;;28.34;44.66
23619;BME280;18207;32.078;34.818;2022-11-15T07:03:33;101145.97;;;28.34;45.02
23619;BME280;18207;32.078;34.818;2022-11-15T07:06:04;101145.59;;;28.36;44.68
23619;BME280;18207;32.078;34.818;2022-11-15T07:08:37;101148.03;;;28.37;45.04
23619;BME280;18207;32.078;34.818;2022-11-15T07:11:09;101149.28;;;28.40;45.13
23619;BME280;18207;32.078;34.818;2022-11-15T07:13:41;101149.72;;;28.42;45.02
23619;BME280;18207;32.078;34.818;2022-11-15T07:16:12;101146.16;;;28.45;44.84
23619;BME280;18207;32.078;34.818;2022-11-15T07:18:42;101147.41;;;28.47;44.93
23619;BME280;18207;32.078;34.818;2022-11-15T07:21:13;101157.97;;;28.50;44.91
23619;BME280;18207;32.078;34.818;2022-11-15T07:23:45;101158.41;;;28.52;45.05
23619;BME280;18207;32.078;34.818;2022-11-15T07:26:15;101151.97;;;28.55;44.99
23619;BME280;18207;32.078;34.818;2022-11-15T07:28:46;101154.03;;;28.58;44.99
23619;BME280;18207;32.078;34.818;2022-11-15T07:31:16;101152.09;;;28.62;44.58
23619;BME280;18207;32.078;34.818;2022-11-15T07:33:46;101147.69;;;28.64;44.63
23619;BME280;18207;32.078;34.818;2022-11-15T07:36:16;101144.91;;;28.68;44.75
23619;BME280;18207;32.078;34.818;2022-11-15T07:38:48;101144.19;;;28.74;44.45
23619;BME280;18207;32.078;34.818;2022-11-15T07:41:18;101141.03;;;28.79;44.84
23619;BME280;18207;32.078;34.818;2022-11-15T07:43:51;101136.28;;;28.83;44.89
23619;BME280;18207;32.078;34.818;2022-11-15T07:46:22;101137.97;;;28.88;44.64
23619;BME280;18207;32.078;34.818;2022-11-15T07:48:52;101136.00;;;28.92;44.52
23619;BME280;18207;32.078;34.818;2022-11-15T07:51:23;101136.06;;;28.95;44.48
23619;BME280;18207;32.078;34.818;2022-11-15T07:53:58;101142.16;;;28.97;44.53
23619;BME280;18207;32.078;34.818;2022-11-15T07:56:29;101138.94;;;28.99;44.52
23619;BME280;18207;32.078;34.818;2022-11-15T07:58:59;101134.50;;;29.01;44.68
23619;BME280;18207;32.078;34.818;2022-11-15T08:01:30;101135.75;;;29.04;44.63
23619;BME280;18207;32.078;34.818;2022-11-15T08:04:00;101130.53;;;29.06;44.40
23619;BME280;18207;32.078;34.818;2022-11-15T08:06:34;101124.50;;;29.07;44.68
23619;BME280;18207;32.078;34.818;2022-11-15T08:09:06;101127.75;;;29.09;44.71
23619;BME280;18207;32.078;34.818;2022-11-15T08:11:37;101119.69;;;29.11;44.35
23619;BME280;18207;32.078;34.818;2022-11-15T08:14:08;101120.91;;;29.14;44.66
23619;BME280;18207;32.078;34.818;2022-11-15T08:16:38;101123.00;;;29.17;44.71
23619;BME280;18207;32.078;34.818;2022-11-15T08:19:09;101117.75;;;29.19;44.23
23619;BME280;18207;32.078;34.818;2022-11-15T08:21:39;101119.84;;;29.22;44.64
23619;BME280;18207;32.078;34.818;2022-11-15T08:24:12;101110.13;;;29.23;44.22
23619;BME280;18207;32.078;34.818;2022-11-15T08:26:42;101110.97;;;29.27;44.20
23619;BME280;18207;32.078;34.818;2022-11-15T08:29:13;101107.38;;;29.30;44.28
23619;BME280;18207;32.078;34.818;2022-11-15T08:31:44;101108.22;;;29.34;44.59
23619;BME280;18207;32.078;34.818;2022-11-15T08:34:14;101101.44;;;29.38;44.60
23619;BME280;18207;32.078;34.818;2022-11-15T08:36:44;101100.66;;;29.41;43.98
23619;BME280;18207;32.078;34.818;2022-11-15T08:39:17;101087.78;;;29.47;44.19
23619;BME280;18207;32.078;34.818;2022-11-15T08:41:48;101092.69;;;29.50;44.14
23619;BME280;18207;32.078;34.818;2022-11-15T08:44:19;101083.41;;;29.53;44.18
23619;BME280;18207;32.078;34.818;2022-11-15T08:46:50;101078.53;;;29.53;44.16
23619;BME280;18207;32.078;34.818;2022-11-15T08:49:20;101076.91;;;29.52;43.99
23619;BME280;18207;32.078;34.818;2022-11-15T08:51:50;101064.00;;;29.55;44.56
23619;BME280;18207;32.078;34.818;2022-11-15T08:54:22;101066.47;;;29.60;44.46
23619;BME280;18207;32.078;34.818;2022-11-15T08:56:52;101075.00;;;29.63;44.11
23619;BME280;18207;32.078;34.818;2022-11-15T08:59:23;101065.34;;;29.68;44.08
23619;BME280;18207;32.078;34.818;2022-11-15T09:01:53;101059.69;;;29.71;43.91
23619;BME280;18207;32.078;34.818;2022-11-15T09:04:24;101062.16;;;29.73;43.84
23619;BME280;18207;32.078;34.818;2022-11-15T09:06:55;101060.97;;;29.74;44.01
23619;BME280;18207;32.078;34.818;2022-11-15T09:09:26;101051.63;;;29.73;43.66
23619;BME280;18207;32.078;34.818;2022-11-15T09:11:59;101056.50;;;29.73;43.99
23619;BME280;18207;32.078;34.818;2022-11-15T09:14:30;101054.03;;;29.71;43.79
23619;BME280;18207;32.078;34.818;2022-11-15T09:17:01;101047.97;;;29.69;43.53
23619;BME280;18207;32.078;34.818;2022-11-15T09:19:31;101045.91;;;29.66;43.67
23619;BME280;18207;32.078;34.818;2022-11-15T09:22:05;101040.19;;;29.59;43.70
23619;BME280;18207;32.078;34.818;2022-11-15T09:24:38;101029.19;;;29.54;43.56
23619;BME280;18207;32.078;34.818;2022-11-15T09:27:08;101029.56;;;29.50;43.85
23619;BME280;18207;32.078;34.818;2022-11-15T09:29:39;101017.38;;;29.46;43.42
23619;BME280;18207;32.078;34.818;2022-11-15T09:32:10;101011.28;;;29.44;43.40
23619;BME280;18207;32.078;34.818;2022-11-15T09:34:41;101008.84;;;29.42;43.51
23619;BME280;18207;32.078;34.818;2022-11-15T09:37:11;101008.81;;;29.39;43.46
23619;BME280;18207;32.078;34.818;2022-11-15T09:39:44;101009.19;;;29.37;43.75
23619;BME280;18207;32.078;34.818;2022-11-15T09:42:38;101004.34;;;29.38;43.53
23619;BME280;18207;32.078;34.818;2022-11-15T09:45:23;101003.94;;;29.39;43.59
23619;BME280;18207;32.078;34.818;2022-11-15T09:48:39;101000.34;;;29.42;43.72
23619;BME280;18207;32.078;34.818;2022-11-15T09:51:24;100993.03;;;29.41;43.33
23619;BME280;18207;32.078;34.818;2022-11-15T09:54:05;100995.06;;;29.41;43.61
23619;BME280;18207;32.078;34.818;2022-11-15T09:57:12;100990.97;;;29.38;43.83
23619;BME280;18207;32.078;34.818;2022-11-15T10:00:08;100996.59;;;29.35;43.72
23619;BME280;18207;32.078;34.818;2022-11-15T10:03:13;100996.56;;;29.31;43.65
23619;BME280;18207;32.078;34.818;2022-11-15T10:05:46;100994.16;;;29.33;43.28
23619;BME280;18207;32.078;34.818;2022-11-15T10:08:45;100979.22;;;29.36;43.12
23619;BME280;18207;32.078;34.818;2022-11-15T10:11:38;100984.94;;;29.40;43.54
23619;BME280;18207;32.078;34.818;2022-11-15T10:14:17;100977.28;;;29.44;43.08
23619;BME280;18207;32.078;34.818;2022-11-15T10:20:10;100966.03;;;29.51;43.78
23619;BME280;18207;32.078;34.818;2022-11-15T10:22:49;100977.78;;;29.52;43.37
23619;BME280;18207;32.078;34.818;2022-11-15T10:25:24;100967.69;;;29.55;43.43
23619;BME280;18207;32.078;34.818;2022-11-15T10:27:57;100968.94;;;29.57;43.53
23619;BME280;18207;32.078;34.818;2022-11-15T10:30:38;100966.53;;;29.59;43.31
23619;BME280;18207;32.078;34.818;2022-11-15T10:33:18;100966.13;;;29.61;43.40
23619;BME280;18207;32.078;34.818;2022-11-15T10:36:21;100964.09;;;29.61;43.50
23619;BME280;18207;32.078;34.818;2022-11-15T10:38:57;100960.03;;;29.59;43.39
23619;BME280;18207;32.078;34.818;2022-11-15T10:41:36;100956.41;;;29.62;43.18
23619;BME280;18207;32.078;34.818;2022-11-15T10:44:26;100953.19;;;29.63;42.99
23619;BME280;18207;32.078;34.818;2022-11-15T10:47:26;100950.75;;;29.62;43.19
23619;BME280;18207;32.078;34.818;2022-11-15T10:50:27;100955.56;;;29.58;43.16
23619;BME280;18207;32.078;34.818;2022-11-15T10:53:01;100955.16;;;29.56;42.82
23619;BME280;18207;32.078;34.818;2022-11-15T10:55:42;100953.09;;;29.53;43.28
23619;BME280;18207;32.078;34.818;2022-11-15T10:58:30;100948.19;;;29.47;43.28
23619;BME280;18207;32.078;34.818;2022-11-15T11:01:15;100952.19;;;29.42;43.22
23619;BME280;18207;32.078;34.818;2022-11-15T11:04:00;100955.00;;;29.39;42.85
23619;BME280;18207;32.078;34.818;2022-11-15T11:06:46;100955.72;;;29.36;43.13
23619;BME280;18207;32.078;34.818;2022-11-15T11:09:32;100950.84;;;29.33;43.24
23619;BME280;18207;32.078;34.818;2022-11-15T11:12:10;100943.94;;;29.30;43.38
23619;BME280;18207;32.078;34.818;2022-11-15T11:14:42;100948.41;;;29.31;43.06
23619;BME280;18207;32.078;34.818;2022-11-15T11:17:23;100942.75;;;29.31;43.29
23619;BME280;18207;32.078;34.818;2022-11-15T11:20:13;100943.94;;;29.30;43.22
23619;BME280;18207;32.078;34.818;2022-11-15T11:23:35;100954.06;;;29.31;43.21
23619;BME280;18207;32.078;34.818;2022-11-15T11:26:38;100954.06;;;29.31;43.00
23619;BME280;18207;32.078;34.818;2022-11-15T11:29:30;100954.94;;;29.35;43.14
23619;BME280;18207;32.078;34.818;2022-11-15T11:32:25;100957.00;;;29.38;42.79
23619;BME280;18207;32.078;34.818;2022-11-15T11:35:11;100951.69;;;29.37;43.03
23619;BME280;18207;32.078;34.818;2022-11-15T11:37:50;100949.69;;;29.37;42.86
23619;BME280;18207;32.078;34.818;2022-11-15T11:40:30;100959.41;;;29.36;42.64
23619;BME280;18207;32.078;34.818;2022-11-15T11:43:15;100958.13;;;29.34;42.89
23619;BME280;18207;32.078;34.818;2022-11-15T11:46:26;100958.97;;;29.34;43.00
23619;BME280;18207;32.078;34.818;2022-11-15T11:49:08;100959.81;;;29.38;42.49
23619;BME280;18207;32.078;34.818;2022-11-15T11:51:49;100963.09;;;29.40;43.09
23619;BME280;18207;32.078;34.818;2022-11-15T11:54:26;100964.75;;;29.45;43.09
23619;BME280;18207;32.078;34.818;2022-11-15T11:57:10;100962.34;;;29.47;42.40
23619;BME280;18207;32.078;34.818;2022-11-15T11:59:49;100966.38;;;29.46;42.84
23619;BME280;18207;32.078;34.818;2022-11-15T12:02:31;100967.97;;;29.43;42.41
23619;BME280;18207;32.078;34.818;2022-11-15T12:05:13;100960.25;;;29.40;42.90
23619;BME280;18207;32.078;34.818;2022-11-15T12:07:56;100953.38;;;29.38;43.01
23619;BME280;18207;32.078;34.818;2022-11-15T12:10:34;100956.19;;;29.38;42.89
23619;BME280;18207;32.078;34.818;2022-11-15T12:13:13;100953.78;;;29.40;42.78
23619;BME280;18207;32.078;34.818;2022-11-15T12:15:53;100953.78;;;29.40;42.83
23619;BME280;18207;32.078;34.818;2022-11-15T12:18:28;100948.06;;;29.36;42.93
23619;BME280;18207;32.078;34.818;2022-11-15T12:21:04;100954.06;;;29.31;42.65
23619;BME280;18207;32.078;34.818;2022-11-15T12:23:46;100951.63;;;29.26;42.69
23619;BME280;18207;32.078;34.818;2022-11-15T12:26:22;100955.66;;;29.25;42.56
23619;BME280;18207;32.078;34.818;2022-11-15T12:28:58;100956.06;;;29.27;42.80
23619;BME280;18207;32.078;34.818;2022-11-15T12:31:40;100962.53;;;29.28;42.92
23619;BME280;18207;32.078;34.818;2022-11-15T12:37:52;100962.47;;;29.21;42.66
23619;BME280;18207;32.078;34.818;2022-11-15T12:40:36;100953.97;;;29.21;42.87
23619;BME280;18207;32.078;34.818;2022-11-15T12:43:38;100958.78;;;29.17;42.41
23619;BME280;18207;32.078;34.818;2022-11-15T12:46:21;100960.38;;;29.14;42.53
23619;BME280;18207;32.078;34.818;2022-11-15T12:49:00;100966.81;;;29.11;42.57
23619;BME280;18207;32.078;34.818;2022-11-15T12:52:07;100961.97;;;29.12;42.80
23619;BME280;18207;32.078;34.818;2022-11-15T12:54:58;100963.19;;;29.11;42.80
23619;BME280;18207;32.078;34.818;2022-11-15T12:57:46;100968.44;;;29.12;42.91
23619;BME280;18207;32.078;34.818;2022-11-15T13:00:44;100960.34;;;29.11;42.39
23619;BME280;18207;32.078;34.818;2022-11-15T13:03:28;100973.25;;;29.08;42.69
23619;BME280;18207;32.078;34.818;2022-11-15T13:06:37;100974.03;;;29.05;42.79
23619;BME280;18207;32.078;34.818;2022-11-15T13:09:52;100973.59;;;29.03;42.64
23619;BME280;18207;32.078;34.818;2022-11-15T13:12:55;100967.13;;;29.03;43.01
23619;BME280;18207;32.078;34.818;2022-11-15T13:15:36;100969.19;;;29.06;42.42
23619;BME280;18207;32.078;34.818;2022-11-15T13:18:36;100965.97;;;29.07;42.66
23619;BME280;18207;32.078;34.818;2022-11-15T13:21:23;100971.25;;;29.09;42.82
23619;BME280;18207;32.078;34.818;2022-11-15T13:24:17;100972.00;;;29.06;42.65
23619;BME280;18207;32.078;34.818;2022-11-15T13:26:47;100963.91;;;29.04;42.80
23619;BME280;18207;32.078;34.818;2022-11-15T13:29:20;100972.41;;;29.04;42.70
23619;BME280;18207;32.078;34.818;2022-11-15T13:31:51;100973.59;;;29.03;42.59
23619;BME280;18207;32.078;34.818;2022-11-15T13:34:30;100968.38;;;29.05;42.50
23619;BME280;18207;32.078;34.818;2022-11-15T13:37:30;100970.00;;;29.06;42.81
23619;BME280;18207;32.078;34.818;2022-11-15T13:40:25;100972.84;;;29.06;42.77